createdAt,value
2017-06-16T00:01:29.201Z,7.85
2017-06-16T00:03:56.777Z,8.67
2017-06-16T00:06:26.498Z,7.73
2017-06-16T00:08:56.129Z,7.30
2017-06-16T00:11:25.100Z,8.08
2017-06-16T00:13:55.760Z,7.40
2017-06-16T00:16:22.652Z,7.53
2017-06-16T00:21:21.440Z,7.15
2017-06-16T00:26:24.731Z,6.90
2017-06-16T00:28:53.245Z,7.30
2017-06-16T00:31:23.857Z,6.73
2017-06-16T00:33:52.510Z,6.87
2017-06-16T00:36:23.412Z,8.12
2017-06-16T00:38:50.212Z,5.95
2017-06-16T00:41:17.015Z,6.03
2017-06-16T00:43:48.239Z,6.92
2017-06-16T00:48:47.330Z,7.93
2017-06-16T00:51:16.629Z,5.82
2017-06-16T00:53:49.585Z,5.40
2017-06-16T00:56:18.229Z,5.42
2017-06-16T00:58:47.766Z,4.70
2017-06-16T01:03:50.762Z,5.35
2017-06-16T01:06:17.967Z,4.78
2017-06-16T01:11:18.680Z,4.35
2017-06-16T01:18:49.993Z,4.83
2017-06-16T01:23:58.673Z,4.63
2017-06-16T01:26:25.829Z,4.83
2017-06-16T01:28:54.546Z,4.60
2017-06-16T01:38:56.309Z,4.72
2017-06-16T01:41:24.942Z,4.87
2017-06-16T01:46:28.828Z,4.45
2017-06-16T01:48:55.709Z,4.25
2017-06-16T01:51:24.461Z,5.73
2017-06-16T01:53:53.401Z,3.77
2017-06-16T01:56:22.145Z,4.42
2017-06-16T02:06:26.075Z,4.82
2017-06-16T02:11:25.845Z,4.88
2017-06-16T02:18:59.641Z,4.33
2017-06-16T02:21:33.921Z,5.02
2017-06-16T02:26:37.034Z,4.60
2017-06-16T02:29:08.720Z,4.85
2017-06-16T02:31:40.211Z,4.40
2017-06-16T02:36:40.480Z,4.68
2017-06-16T02:39:09.057Z,3.88
2017-06-16T02:41:35.930Z,6.28
2017-06-16T02:46:37.377Z,4.78
2017-06-16T02:49:05.900Z,4.80
2017-06-16T02:54:09.581Z,5.18
2017-06-16T02:56:37.305Z,4.90
2017-06-16T03:01:39.101Z,5.80
2017-06-16T03:04:08.136Z,5.37
2017-06-16T03:09:13.565Z,5.60
2017-06-16T03:11:42.975Z,5.05
2017-06-16T03:16:45.358Z,6.12
2017-06-16T03:19:13.837Z,5.70
2017-06-16T03:21:48.527Z,5.93
2017-06-16T03:24:21.516Z,5.87
2017-06-16T03:26:48.384Z,5.87
2017-06-16T03:29:16.909Z,5.45
2017-06-16T03:31:44.277Z,6.10
2017-06-16T03:34:14.713Z,5.95
2017-06-16T03:36:42.393Z,6.35
2017-06-16T03:39:10.314Z,6.02
2017-06-16T03:41:44.125Z,5.27
2017-06-16T03:44:11.261Z,6.47
2017-06-16T03:49:09.753Z,6.47
2017-06-16T03:51:37.404Z,6.37
2017-06-16T03:54:08.123Z,5.63
2017-06-16T03:56:40.847Z,6.27
2017-06-16T03:59:09.413Z,6.63
2017-06-16T04:01:36.473Z,4.78
2017-06-16T04:04:04.516Z,5.45
2017-06-16T04:06:32.251Z,6.52
2017-06-16T04:11:32.754Z,5.92
2017-06-16T04:13:59.950Z,6.07
2017-06-16T04:16:27.712Z,7.42
2017-06-16T04:18:55.493Z,6.98
2017-06-16T04:24:12.150Z,7.78
2017-06-16T04:45:35.936Z,6.10
2017-06-16T04:55:51.607Z,6.96
2017-06-16T04:58:21.880Z,6.34
2017-06-16T05:03:43.153Z,7.18
2017-06-16T05:11:37.273Z,6.78
2017-06-16T06:03:38.452Z,9.35
2017-06-16T07:12:01.493Z,10.65
2017-06-16T07:33:46.275Z,11.68
2017-06-16T07:38:58.460Z,11.72
2017-06-16T07:41:27.002Z,10.83
2017-06-16T07:43:57.199Z,10.48
2017-06-16T07:46:31.216Z,12.05
2017-06-16T07:48:58.341Z,10.18
2017-06-16T07:53:58.859Z,10.88
2017-06-16T07:56:27.355Z,9.08
2017-06-16T07:58:54.177Z,11.72
2017-06-16T08:01:24.603Z,11.06
2017-06-16T08:11:43.165Z,12.46
2017-06-16T08:14:11.496Z,11.86
2017-06-16T08:16:48.304Z,13.02
2017-06-16T08:19:15.531Z,14.64
2017-06-16T08:21:46.312Z,13.60
2017-06-16T08:26:49.102Z,11.76
2017-06-16T08:29:20.921Z,10.92
2017-06-16T08:42:08.074Z,11.72
2017-06-16T08:47:24.784Z,10.42
2017-06-16T08:49:51.585Z,12.00
2017-06-16T08:52:18.391Z,10.70
2017-06-16T08:54:49.043Z,10.94
2017-06-16T09:02:35.521Z,10.16
2017-06-16T09:12:46.748Z,8.70
2017-06-16T09:17:53.650Z,5.20
2017-06-16T09:22:51.505Z,4.42
2017-06-16T09:25:20.004Z,5.20
2017-06-16T09:32:53.072Z,5.68
2017-06-16T09:35:25.504Z,5.30
2017-06-16T09:40:27.810Z,4.44
2017-06-16T09:43:00.577Z,5.07
2017-06-16T09:45:27.964Z,4.92
2017-06-16T09:47:59.497Z,4.14
2017-06-16T09:50:28.038Z,4.24
2017-06-16T09:52:56.683Z,4.36
2017-06-16T10:00:27.392Z,4.02
2017-06-16T10:02:56.390Z,3.82
2017-06-16T10:05:23.199Z,3.78
2017-06-16T10:07:55.179Z,3.64
2017-06-16T10:10:22.041Z,4.13
2017-06-16T10:12:50.289Z,3.97
2017-06-16T10:15:18.826Z,3.82
2017-06-16T10:17:45.615Z,2.70
2017-06-16T10:20:15.814Z,3.13
2017-06-16T10:22:42.952Z,3.62
2017-06-16T10:25:09.839Z,3.30
2017-06-16T10:30:07.671Z,3.44
2017-06-16T10:32:35.389Z,3.20
2017-06-16T10:35:02.211Z,3.60
2017-06-16T10:37:30.911Z,3.80
2017-06-16T10:39:57.975Z,2.74
2017-06-16T10:42:24.806Z,3.20
2017-06-16T10:44:51.601Z,2.84
2017-06-16T10:47:20.733Z,2.98
2017-06-16T10:49:47.552Z,4.20
2017-06-16T10:52:14.329Z,4.10
2017-06-16T10:54:41.439Z,3.98
2017-06-16T10:57:08.269Z,4.06
2017-06-16T10:59:36.481Z,3.56
2017-06-16T11:02:03.771Z,4.02
2017-06-16T11:04:31.957Z,3.42
2017-06-16T11:06:59.569Z,4.20
2017-06-16T11:09:30.241Z,3.78
2017-06-16T11:11:58.100Z,2.86
2017-06-16T11:14:25.363Z,3.24
2017-06-16T11:16:54.983Z,3.30
2017-06-16T11:19:22.204Z,3.06
2017-06-16T11:21:50.172Z,2.96
2017-06-16T11:24:17.709Z,4.00
2017-06-16T11:26:44.512Z,3.52
2017-06-16T11:29:11.305Z,3.44
2017-06-16T11:31:38.466Z,4.26
2017-06-16T11:34:05.323Z,4.10
2017-06-16T11:36:32.117Z,4.00
2017-06-16T11:38:58.929Z,4.20
2017-06-16T11:41:25.794Z,4.68
2017-06-16T11:43:52.625Z,4.13
2017-06-16T11:46:19.422Z,3.78
2017-06-16T11:48:46.542Z,5.06
2017-06-16T11:51:14.166Z,3.30
2017-06-16T11:53:40.973Z,3.72
2017-06-16T11:56:07.796Z,4.28
2017-06-16T11:58:35.008Z,3.40
2017-06-16T12:01:01.767Z,2.80
2017-06-16T12:03:29.029Z,3.68
2017-06-16T12:05:55.821Z,5.22
2017-06-16T12:08:22.603Z,3.16
2017-06-16T12:10:49.706Z,3.20
2017-06-16T12:13:16.774Z,2.72
2017-06-16T12:15:43.811Z,2.74
2017-06-16T12:18:10.625Z,3.04
2017-06-16T12:20:37.676Z,3.20
2017-06-16T12:23:04.869Z,2.54
2017-06-16T12:25:31.964Z,2.42
2017-06-16T12:27:59.027Z,3.28
2017-06-16T12:30:25.899Z,3.88
2017-06-16T12:32:52.769Z,4.10
2017-06-16T12:35:19.548Z,3.40
2017-06-16T12:37:46.419Z,3.00
2017-06-16T12:40:13.216Z,2.64
2017-06-16T12:42:40.001Z,2.72
2017-06-16T12:45:06.809Z,2.43
2017-06-16T12:47:33.623Z,2.34
2017-06-16T12:50:00.481Z,2.04
2017-06-16T12:52:27.283Z,2.26
2017-06-16T12:54:54.109Z,2.06
2017-06-16T12:57:20.908Z,2.20
2017-06-16T13:02:18.735Z,1.88
2017-06-16T13:04:45.621Z,1.54
2017-06-16T13:07:12.422Z,2.16
2017-06-16T13:09:39.255Z,2.46
2017-06-16T13:12:06.072Z,2.72
2017-06-16T13:14:32.871Z,2.64
2017-06-16T13:17:00.106Z,2.12
2017-06-16T13:19:26.927Z,1.94
2017-06-16T13:21:53.715Z,2.46
2017-06-16T13:24:20.880Z,2.18
2017-06-16T13:26:47.687Z,2.60
2017-06-16T13:29:14.506Z,2.10
2017-06-16T13:31:41.303Z,2.88
2017-06-16T13:34:08.971Z,2.68
2017-06-16T13:36:35.720Z,1.68
2017-06-16T13:39:02.870Z,2.34
2017-06-16T13:41:29.688Z,2.04
2017-06-16T13:43:58.441Z,2.04
2017-06-16T13:46:25.696Z,1.74
2017-06-16T13:48:52.472Z,1.68
2017-06-16T13:51:19.579Z,1.66
2017-06-16T13:53:46.401Z,1.60
2017-06-16T13:56:13.163Z,1.78
2017-06-16T13:58:39.937Z,2.12
2017-06-16T14:01:10.733Z,1.46
2017-06-16T14:03:37.488Z,1.54
2017-06-16T14:06:04.236Z,1.68
2017-06-16T14:08:31.026Z,1.64
2017-06-16T14:10:57.784Z,1.40
2017-06-16T14:13:24.533Z,2.00
2017-06-16T14:15:51.690Z,1.70
2017-06-16T14:18:18.449Z,1.96
2017-06-16T14:20:45.593Z,1.88
2017-06-16T14:23:12.371Z,1.82
2017-06-16T14:25:39.129Z,2.56
2017-06-16T14:28:05.876Z,2.04
2017-06-16T14:30:32.665Z,2.04
2017-06-16T14:32:59.421Z,2.32
2017-06-16T14:35:26.577Z,1.90
2017-06-16T14:37:53.371Z,2.40
2017-06-16T14:40:20.574Z,1.58
2017-06-16T14:42:47.370Z,2.00
2017-06-16T14:45:14.398Z,1.70
2017-06-16T14:47:41.145Z,1.66
2017-06-16T14:50:07.888Z,2.28
2017-06-16T14:52:34.672Z,1.64
2017-06-16T14:55:01.593Z,1.78
2017-06-16T14:57:28.353Z,1.88
2017-06-16T14:59:55.141Z,3.00
2017-06-16T15:02:22.621Z,1.82
2017-06-16T15:04:49.737Z,1.64
2017-06-16T15:07:16.521Z,2.58
2017-06-16T15:09:43.270Z,1.82
2017-06-16T15:12:10.029Z,1.32
2017-06-16T15:14:36.825Z,1.78
2017-06-16T15:17:03.572Z,1.42
2017-06-16T15:19:30.317Z,2.12
2017-06-16T15:21:57.093Z,2.04
2017-06-16T15:24:24.185Z,2.04
2017-06-16T15:26:50.944Z,1.90
2017-06-16T15:29:17.737Z,1.96
2017-06-16T15:31:44.889Z,1.94
2017-06-16T15:34:11.924Z,1.90
2017-06-16T15:36:40.561Z,1.66
2017-06-16T15:39:07.317Z,1.92
2017-06-16T15:41:34.458Z,1.70
2017-06-16T15:44:01.252Z,1.72
2017-06-16T15:46:28.003Z,1.84
2017-06-16T15:48:54.758Z,1.76
2017-06-16T15:51:21.545Z,1.62
2017-06-16T15:53:48.625Z,2.30
2017-06-16T15:56:15.389Z,2.08
2017-06-16T15:58:42.182Z,1.70
2017-06-16T16:01:08.958Z,2.57
2017-06-16T16:03:35.956Z,1.88
2017-06-16T16:06:02.745Z,1.90
2017-06-16T16:08:29.534Z,2.18
2017-06-16T16:10:56.282Z,2.12
2017-06-16T16:13:23.311Z,1.92
2017-06-16T16:15:50.296Z,2.00
2017-06-16T16:18:17.070Z,1.92
2017-06-16T16:20:44.178Z,1.90
2017-06-16T16:23:10.916Z,1.86
2017-06-16T16:25:38.389Z,2.38
2017-06-16T16:28:05.181Z,2.12
2017-06-16T16:30:32.197Z,1.66
2017-06-16T16:32:58.949Z,1.76
2017-06-16T16:35:25.756Z,1.46
2017-06-16T16:37:52.565Z,1.70
2017-06-16T16:40:19.319Z,1.93
2017-06-16T16:42:46.115Z,2.10
2017-06-16T16:45:12.877Z,2.18
2017-06-16T16:47:39.627Z,2.27
2017-06-16T16:50:06.426Z,1.93
2017-06-16T16:52:33.184Z,2.00
2017-06-16T16:54:59.936Z,2.17
2017-06-16T16:57:27.112Z,2.15
2017-06-16T16:59:54.829Z,2.52
2017-06-16T17:02:21.841Z,1.62
2017-06-16T17:04:50.053Z,1.90
2017-06-16T17:07:17.069Z,2.42
2017-06-16T17:09:44.153Z,1.73
2017-06-16T17:12:11.672Z,3.30
2017-06-16T17:14:38.488Z,1.92
2017-06-16T17:17:05.790Z,2.34
2017-06-16T17:19:33.558Z,2.13
2017-06-16T17:22:00.999Z,2.15
2017-06-16T17:24:27.758Z,2.45
2017-06-16T17:26:55.146Z,2.60
2017-06-16T17:29:23.584Z,2.47
2017-06-16T17:31:51.060Z,2.15
2017-06-16T17:34:18.167Z,2.07
2017-06-16T17:36:46.836Z,2.55
2017-06-16T17:39:13.616Z,2.15
2017-06-16T17:41:40.419Z,3.37
2017-06-16T17:44:07.177Z,2.20
2017-06-16T17:46:33.928Z,2.86
2017-06-16T17:49:00.724Z,1.98
2017-06-16T17:51:28.345Z,2.00
2017-06-16T17:53:57.655Z,2.02
2017-06-16T17:56:24.444Z,2.52
2017-06-16T17:58:51.201Z,1.70
2017-06-16T18:01:18.321Z,1.78
2017-06-16T18:03:45.652Z,1.60
2017-06-16T18:06:13.416Z,2.17
2017-06-16T18:08:41.053Z,1.88
2017-06-16T18:11:07.845Z,2.37
2017-06-16T18:13:35.272Z,2.33
2017-06-16T18:16:02.029Z,2.28
2017-06-16T18:18:28.828Z,2.55
2017-06-16T18:20:55.576Z,1.93
2017-06-16T18:23:22.339Z,1.78
2017-06-16T18:25:49.121Z,2.37
2017-06-16T18:28:17.931Z,2.08
2017-06-16T18:30:44.697Z,2.45
2017-06-16T18:33:11.536Z,2.13
2017-06-16T18:35:39.023Z,2.13
2017-06-16T18:38:06.489Z,2.30
2017-06-16T18:40:33.976Z,2.10
2017-06-16T18:43:00.728Z,2.75
2017-06-16T18:45:28.416Z,2.22
2017-06-16T18:47:55.219Z,2.20
2017-06-16T18:50:23.685Z,1.95
2017-06-16T18:52:50.468Z,2.03
2017-06-16T18:55:17.956Z,2.67
2017-06-16T18:57:44.744Z,1.85
2017-06-16T19:00:11.504Z,2.03
2017-06-16T19:02:38.872Z,2.52
2017-06-16T19:05:06.408Z,2.65
2017-06-16T19:07:33.533Z,2.85
2017-06-16T19:10:01.376Z,2.17
2017-06-16T19:12:30.574Z,3.32
2017-06-16T19:14:57.344Z,1.92
2017-06-16T19:17:24.923Z,2.50
2017-06-16T19:19:52.630Z,2.20
2017-06-16T19:22:20.311Z,2.58
2017-06-16T19:24:50.038Z,4.08
2017-06-16T19:27:17.442Z,1.62
2017-06-16T19:29:44.616Z,2.10
2017-06-16T19:32:11.656Z,2.48
2017-06-16T19:37:23.601Z,2.70
2017-06-16T19:39:54.380Z,2.47
2017-06-16T19:42:21.671Z,2.40
2017-06-16T19:47:38.208Z,2.35
2017-06-16T19:50:05.021Z,2.20
2017-06-16T19:58:00.763Z,3.10
2017-06-16T20:00:29.572Z,2.53
2017-06-16T20:05:42.025Z,2.53
2017-06-16T20:08:12.158Z,3.93
2017-06-16T20:24:20.036Z,2.82
2017-06-16T20:26:55.369Z,2.33
2017-06-16T20:29:26.335Z,2.40
2017-06-16T20:31:55.304Z,2.90
2017-06-16T20:34:23.515Z,2.65
2017-06-16T20:37:05.720Z,2.92
2017-06-16T20:52:46.945Z,2.95
2017-06-16T20:55:13.749Z,4.40
2017-06-16T21:02:58.943Z,2.58
2017-06-16T21:05:25.785Z,2.70
2017-06-16T21:29:33.315Z,2.75
2017-06-16T21:48:30.505Z,4.42
2017-06-16T21:50:57.440Z,3.18
2017-06-16T21:56:08.368Z,3.50
2017-06-16T22:06:44.953Z,3.22
2017-06-16T22:09:14.389Z,3.18
2017-06-16T22:11:49.483Z,4.82
2017-06-16T22:17:03.473Z,2.90
2017-06-16T22:19:30.265Z,3.42
2017-06-16T22:21:58.824Z,2.68
2017-06-16T22:24:29.490Z,3.00
2017-06-16T22:26:56.348Z,2.97
2017-06-16T22:31:57.260Z,3.18
2017-06-16T22:34:24.129Z,4.02
2017-06-16T22:36:52.753Z,3.02
2017-06-16T22:39:22.448Z,3.10
2017-06-16T22:44:24.110Z,4.10
2017-06-16T22:46:52.780Z,2.73
2017-06-16T22:49:19.559Z,4.40
2017-06-16T22:51:53.264Z,3.15
2017-06-16T22:54:20.071Z,2.75
2017-06-16T22:56:46.852Z,3.08
2017-06-16T22:59:15.429Z,2.77
2017-06-16T23:04:14.554Z,3.67
2017-06-16T23:06:43.749Z,2.97
2017-06-16T23:11:45.364Z,3.30
2017-06-16T23:16:51.547Z,3.33
2017-06-16T23:19:22.488Z,3.83
2017-06-16T23:24:21.468Z,2.95
2017-06-16T23:29:26.747Z,4.40
2017-06-16T23:32:00.061Z,3.90
2017-06-16T23:34:27.453Z,3.85
2017-06-16T23:36:54.250Z,4.12
2017-06-16T23:39:21.036Z,3.93
2017-06-16T23:41:47.865Z,4.93
2017-06-16T23:46:47.472Z,3.98
2017-06-16T23:49:14.372Z,4.60
2017-06-16T23:51:41.468Z,4.17
2017-06-16T23:59:18.216Z,6.00
